createdAt,value
2023-08-24T00:01:36.726Z,16.25
2023-08-24T00:04:05.632Z,16.22
2023-08-24T00:06:33.531Z,16.19
2023-08-24T00:09:02.846Z,16.17
2023-08-24T00:11:31.610Z,16.16
2023-08-24T00:13:59.373Z,16.12
2023-08-24T00:16:27.147Z,16.08
2023-08-24T00:18:54.974Z,16.07
2023-08-24T00:21:24.918Z,16.06
2023-08-24T00:23:53.753Z,16.05
2023-08-24T00:26:23.247Z,16.04
2023-08-24T00:28:50.934Z,16.03
2023-08-24T00:31:19.625Z,16.01
2023-08-24T00:33:51.653Z,15.99
2023-08-24T00:36:20.080Z,15.96
2023-08-24T00:38:51.920Z,15.95
2023-08-24T00:41:20.100Z,15.92
2023-08-24T00:43:51.063Z,15.89
2023-08-24T00:46:19.670Z,15.86
2023-08-24T00:48:49.272Z,15.82
2023-08-24T00:51:17.556Z,15.80
2023-08-24T00:53:45.393Z,15.77
2023-08-24T00:56:13.526Z,15.74
2023-08-24T00:58:41.959Z,15.71
2023-08-24T01:01:11.159Z,15.67
2023-08-24T01:03:38.901Z,15.67
2023-08-24T01:06:08.008Z,15.65
2023-08-24T01:08:36.014Z,15.62
2023-08-24T01:11:10.930Z,15.60
2023-08-24T01:13:48.063Z,15.58
2023-08-24T01:16:22.637Z,15.56
2023-08-24T01:18:51.547Z,15.52
2023-08-24T01:21:19.910Z,15.49
2023-08-24T01:23:56.106Z,15.47
2023-08-24T01:26:25.675Z,15.45
2023-08-24T01:28:54.215Z,15.42
2023-08-24T01:31:22.008Z,15.40
2023-08-24T01:33:49.989Z,15.37
2023-08-24T01:36:18.903Z,15.35
2023-08-24T01:38:51.507Z,15.32
2023-08-24T01:41:23.357Z,15.29
2023-08-24T01:43:55.915Z,15.27
2023-08-24T01:46:26.244Z,15.26
2023-08-24T01:48:55.288Z,15.23
2023-08-24T01:51:25.479Z,15.21
2023-08-24T01:53:54.084Z,15.24
2023-08-24T01:56:22.482Z,15.22
2023-08-24T01:58:51.961Z,15.23
2023-08-24T02:01:19.775Z,15.19
2023-08-24T02:03:47.728Z,15.18
2023-08-24T02:06:15.594Z,15.16
2023-08-24T02:08:45.372Z,15.12
2023-08-24T02:11:13.104Z,15.11
2023-08-24T02:13:41.245Z,15.09
2023-08-24T02:16:10.975Z,15.06
2023-08-24T02:18:38.946Z,15.04
2023-08-24T02:21:11.478Z,15.01
2023-08-24T02:23:39.446Z,15.00
2023-08-24T02:26:07.160Z,14.97
2023-08-24T02:28:35.439Z,14.95
2023-08-24T02:31:04.216Z,14.94
2023-08-24T02:33:35.700Z,14.92
2023-08-24T02:36:03.386Z,14.90
2023-08-24T02:38:31.126Z,14.89
2023-08-24T02:41:05.887Z,14.88
2023-08-24T02:43:34.150Z,14.86
2023-08-24T02:46:04.306Z,14.84
2023-08-24T02:48:32.226Z,14.82
2023-08-24T02:51:02.159Z,14.81
2023-08-24T02:53:29.826Z,14.80
2023-08-24T02:55:58.184Z,14.78
2023-08-24T02:58:26.053Z,14.77
2023-08-24T03:00:53.917Z,14.76
2023-08-24T03:03:21.816Z,14.75
2023-08-24T03:05:56.718Z,14.76
2023-08-24T03:08:26.168Z,14.76
2023-08-24T03:10:54.536Z,14.76
2023-08-24T03:13:22.503Z,14.76
2023-08-24T03:15:50.502Z,14.80
2023-08-24T03:18:18.935Z,14.85
2023-08-24T03:20:47.990Z,14.92
2023-08-24T03:23:16.739Z,14.97
2023-08-24T03:25:46.089Z,15.01
2023-08-24T03:28:15.347Z,15.02
2023-08-24T03:30:49.222Z,15.03
2023-08-24T03:33:18.222Z,15.02
2023-08-24T03:35:46.123Z,15.02
2023-08-24T03:38:13.884Z,15.02
2023-08-24T03:40:41.919Z,15.03
2023-08-24T03:43:11.151Z,15.04
2023-08-24T03:45:39.081Z,15.09
2023-08-24T03:48:07.445Z,15.12
2023-08-24T03:50:35.306Z,15.17
2023-08-24T03:53:03.388Z,15.21
2023-08-24T03:55:31.205Z,15.25
2023-08-24T03:57:59.270Z,15.28
2023-08-24T04:00:29.182Z,15.30
2023-08-24T04:02:57.035Z,15.34
2023-08-24T04:05:27.257Z,15.39
2023-08-24T04:07:54.990Z,15.42
2023-08-24T04:10:22.908Z,15.48
2023-08-24T04:12:50.655Z,15.54
2023-08-24T04:15:18.538Z,15.59
2023-08-24T04:17:47.737Z,15.67
2023-08-24T04:20:15.639Z,15.74
2023-08-24T04:22:43.523Z,15.79
2023-08-24T04:25:11.286Z,15.87
2023-08-24T04:27:39.370Z,15.93
2023-08-24T04:30:12.627Z,15.98
2023-08-24T04:32:40.808Z,16.03
2023-08-24T04:35:11.258Z,16.09
2023-08-24T04:37:39.494Z,16.12
2023-08-24T04:40:09.265Z,16.18
2023-08-24T04:42:37.090Z,16.22
2023-08-24T04:45:05.211Z,16.25
2023-08-24T04:47:32.917Z,16.30
2023-08-24T04:50:00.811Z,16.32
2023-08-24T04:52:29.854Z,16.35
2023-08-24T04:54:57.631Z,16.36
2023-08-24T04:57:25.828Z,16.40
2023-08-24T04:59:53.592Z,16.43
2023-08-24T05:02:21.307Z,16.46
2023-08-24T05:04:49.839Z,16.51
2023-08-24T05:07:18.592Z,16.54
2023-08-24T05:09:47.781Z,16.60
2023-08-24T05:12:15.473Z,16.64
2023-08-24T05:14:43.150Z,16.69
2023-08-24T05:17:10.881Z,16.75
2023-08-24T05:19:38.567Z,16.78
2023-08-24T05:22:06.294Z,16.84
2023-08-24T05:24:34.106Z,16.88
2023-08-24T05:27:03.155Z,16.91
2023-08-24T05:29:30.847Z,16.97
2023-08-24T05:31:58.588Z,17.02
2023-08-24T05:34:26.259Z,17.08
2023-08-24T05:36:53.951Z,17.16
2023-08-24T05:39:21.838Z,17.23
2023-08-24T05:41:52.911Z,17.28
2023-08-24T05:44:22.404Z,17.36
2023-08-24T05:46:50.258Z,17.40
2023-08-24T05:49:17.981Z,17.47
2023-08-24T05:51:45.836Z,17.56
2023-08-24T05:54:14.472Z,17.63
2023-08-24T05:56:42.158Z,17.70
2023-08-24T05:59:09.971Z,17.72
2023-08-24T06:01:40.089Z,17.73
2023-08-24T06:04:08.016Z,17.76
2023-08-24T06:06:35.824Z,17.79
2023-08-24T06:09:06.335Z,17.86
2023-08-24T06:11:35.786Z,17.92
2023-08-24T06:14:03.614Z,17.96
2023-08-24T06:16:31.663Z,18.01
2023-08-24T06:19:01.031Z,18.04
2023-08-24T06:21:28.900Z,18.08
2023-08-24T06:23:56.574Z,18.15
2023-08-24T06:26:24.324Z,18.23
2023-08-24T06:28:51.979Z,18.34
2023-08-24T06:31:19.663Z,18.43
2023-08-24T06:33:47.693Z,18.51
2023-08-24T06:36:16.733Z,18.59
2023-08-24T06:38:44.416Z,18.69
2023-08-24T06:41:13.520Z,18.86
2023-08-24T06:43:41.563Z,19.05
2023-08-24T06:46:10.058Z,19.25
2023-08-24T06:48:38.273Z,19.41
2023-08-24T06:51:06.463Z,19.61
2023-08-24T06:53:35.578Z,19.79
2023-08-24T06:56:04.990Z,19.93
2023-08-24T06:58:32.935Z,20.04
2023-08-24T07:01:00.689Z,20.08
2023-08-24T07:03:28.477Z,20.11
2023-08-24T07:05:56.258Z,20.11
2023-08-24T07:08:23.948Z,20.16
2023-08-24T07:10:55.452Z,20.30
2023-08-24T07:13:23.496Z,20.41
2023-08-24T07:15:52.059Z,20.50
2023-08-24T07:18:19.838Z,20.51
2023-08-24T07:20:50.834Z,20.44
2023-08-24T07:23:18.578Z,20.38
2023-08-24T07:25:46.226Z,20.30
2023-08-24T07:28:15.617Z,20.10
2023-08-24T07:30:43.329Z,19.96
2023-08-24T07:33:11.055Z,19.90
2023-08-24T07:35:38.783Z,19.83
2023-08-24T07:38:06.610Z,19.78
2023-08-24T07:40:34.340Z,19.74
2023-08-24T07:43:01.990Z,19.74
2023-08-24T07:45:31.081Z,19.76
2023-08-24T07:47:58.986Z,19.79
2023-08-24T07:50:26.673Z,19.76
2023-08-24T07:52:57.421Z,19.75
2023-08-24T07:55:26.004Z,19.79
2023-08-24T07:57:54.044Z,19.81
2023-08-24T08:00:22.145Z,19.83
2023-08-24T08:02:54.207Z,19.91
2023-08-24T08:05:30.614Z,19.98
2023-08-24T08:07:58.385Z,20.04
2023-08-24T08:10:26.374Z,20.10
2023-08-24T08:12:54.153Z,20.13
2023-08-24T08:15:22.106Z,20.17
2023-08-24T08:17:50.909Z,20.24
2023-08-24T08:20:20.330Z,20.31
2023-08-24T08:22:48.269Z,20.41
2023-08-24T08:25:18.786Z,20.50
2023-08-24T08:27:46.829Z,20.60
2023-08-24T08:30:14.973Z,20.70
2023-08-24T08:32:42.811Z,20.80
2023-08-24T08:35:11.417Z,20.84
2023-08-24T08:37:40.458Z,20.97
2023-08-24T08:40:12.568Z,21.07
2023-08-24T08:42:40.900Z,21.18
2023-08-24T08:45:11.589Z,21.34
2023-08-24T08:47:39.716Z,21.65
2023-08-24T08:50:10.203Z,22.14
2023-08-24T08:52:38.060Z,22.72
2023-08-24T08:55:11.314Z,23.20
2023-08-24T08:57:41.017Z,23.59
2023-08-24T09:00:11.233Z,23.68
2023-08-24T09:02:39.495Z,23.75
2023-08-24T09:05:08.038Z,23.76
2023-08-24T09:07:36.693Z,23.71
2023-08-24T09:10:08.646Z,23.69
2023-08-24T09:12:37.112Z,23.65
2023-08-24T09:15:07.227Z,23.63
2023-08-24T09:17:36.529Z,23.60
2023-08-24T09:20:10.878Z,23.57
2023-08-24T09:22:40.751Z,23.54
2023-08-24T09:25:11.478Z,23.52
2023-08-24T09:27:39.255Z,23.50
2023-08-24T09:30:08.397Z,23.54
2023-08-24T09:32:36.181Z,23.56
2023-08-24T09:35:06.754Z,23.63
2023-08-24T09:37:36.443Z,23.64
2023-08-24T09:40:08.772Z,23.71
2023-08-24T09:42:42.797Z,23.76
2023-08-24T09:45:14.226Z,23.81
2023-08-24T09:47:47.395Z,23.87
2023-08-24T09:52:44.473Z,24.05
2023-08-24T09:55:14.105Z,24.11
2023-08-24T09:57:44.238Z,24.24
2023-08-24T10:00:15.361Z,24.37
2023-08-24T10:02:51.446Z,24.52
2023-08-24T10:07:55.375Z,24.76
2023-08-24T10:10:25.923Z,24.93
2023-08-24T10:13:01.606Z,25.09
2023-08-24T10:15:29.774Z,25.26
2023-08-24T10:17:58.500Z,25.44
2023-08-24T10:20:27.123Z,25.61
2023-08-24T10:22:56.877Z,25.75
2023-08-24T10:25:25.781Z,25.85
2023-08-24T10:27:55.536Z,25.93
2023-08-24T10:30:23.503Z,25.98
2023-08-24T10:32:54.749Z,26.03
2023-08-24T10:35:24.357Z,26.11
2023-08-24T10:37:55.135Z,26.15
2023-08-24T10:40:33.728Z,26.10
2023-08-24T10:43:06.386Z,26.06
2023-08-24T10:45:58.846Z,25.99
2023-08-24T10:48:27.692Z,25.94
2023-08-24T10:51:21.724Z,25.89
2023-08-24T10:53:53.289Z,25.92
2023-08-24T10:56:21.696Z,25.93
2023-08-24T10:59:15.175Z,25.90
2023-08-24T11:01:44.155Z,25.89
2023-08-24T11:04:14.031Z,25.88
2023-08-24T11:06:56.101Z,25.82
2023-08-24T11:09:25.382Z,25.80
2023-08-24T11:12:00.729Z,25.76
2023-08-24T11:14:31.330Z,25.73
2023-08-24T11:17:01.165Z,25.70
2023-08-24T11:19:29.214Z,25.69
2023-08-24T11:21:56.986Z,25.69
2023-08-24T11:24:25.005Z,25.66
2023-08-24T11:26:53.515Z,25.65
2023-08-24T11:29:21.547Z,25.70
2023-08-24T11:31:50.635Z,25.75
2023-08-24T11:34:18.417Z,25.77
2023-08-24T11:36:48.462Z,25.83
2023-08-24T11:39:21.170Z,25.90
2023-08-24T11:41:59.698Z,25.95
2023-08-24T11:44:29.337Z,26.03
2023-08-24T11:47:00.744Z,26.08
2023-08-24T11:49:30.377Z,26.09
2023-08-24T11:51:59.336Z,26.11
2023-08-24T11:54:27.363Z,26.18
2023-08-24T11:56:55.405Z,26.24
2023-08-24T11:59:23.423Z,26.32
2023-08-24T12:01:51.735Z,26.35
2023-08-24T12:04:21.130Z,26.38
2023-08-24T12:06:48.878Z,26.42
2023-08-24T12:09:17.293Z,26.51
2023-08-24T12:11:45.000Z,26.60
2023-08-24T12:14:19.454Z,26.68
2023-08-24T12:16:47.266Z,26.75
2023-08-24T12:19:14.922Z,26.83
2023-08-24T12:21:47.549Z,26.90
2023-08-24T12:24:16.111Z,26.99
2023-08-24T12:26:43.772Z,27.10
2023-08-24T12:29:11.493Z,27.18
2023-08-24T12:31:44.436Z,27.29
2023-08-24T12:34:12.554Z,27.41
2023-08-24T12:36:42.369Z,27.49
2023-08-24T12:39:14.732Z,27.56
2023-08-24T12:41:42.642Z,27.63
2023-08-24T12:44:12.728Z,27.68
2023-08-24T12:46:42.416Z,27.75
2023-08-24T12:49:10.309Z,27.76
2023-08-24T12:51:38.472Z,27.73
2023-08-24T12:54:07.165Z,27.76
2023-08-24T12:56:37.914Z,27.76
2023-08-24T12:59:05.891Z,27.69
2023-08-24T13:01:33.924Z,27.62
2023-08-24T13:04:01.640Z,27.49
2023-08-24T13:06:29.294Z,27.35
2023-08-24T13:08:57.071Z,27.30
2023-08-24T13:11:25.456Z,27.37
2023-08-24T13:13:54.541Z,27.44
2023-08-24T13:16:22.243Z,27.61
2023-08-24T13:18:49.945Z,27.76
2023-08-24T13:21:18.742Z,27.84
2023-08-24T13:23:46.658Z,27.89
2023-08-24T13:26:20.849Z,27.93
2023-08-24T13:28:48.820Z,28.06
2023-08-24T13:31:18.201Z,28.18
2023-08-24T13:33:46.723Z,28.40
2023-08-24T13:36:14.585Z,28.59
2023-08-24T13:38:42.357Z,28.73
2023-08-24T13:41:10.006Z,28.79
2023-08-24T13:43:37.738Z,28.90
2023-08-24T13:46:05.523Z,29.02
2023-08-24T13:48:35.605Z,29.05
2023-08-24T13:51:03.388Z,29.04
2023-08-24T13:53:31.108Z,29.10
2023-08-24T13:55:58.773Z,29.07
2023-08-24T13:58:26.530Z,29.00
2023-08-24T14:00:57.519Z,28.84
2023-08-24T14:03:25.749Z,28.74
2023-08-24T14:05:58.639Z,28.66
2023-08-24T14:08:26.960Z,28.55
2023-08-24T14:10:55.016Z,28.47
2023-08-24T14:13:22.857Z,28.34
2023-08-24T14:15:51.484Z,28.29
2023-08-24T14:18:19.677Z,28.21
2023-08-24T14:20:47.562Z,28.13
2023-08-24T14:23:16.654Z,28.17
2023-08-24T14:25:44.664Z,28.24
2023-08-24T14:28:12.702Z,28.27
2023-08-24T14:30:41.253Z,28.19
2023-08-24T14:33:08.984Z,28.10
2023-08-24T14:35:36.715Z,28.00
2023-08-24T14:38:04.884Z,27.86
2023-08-24T14:40:34.007Z,27.69
2023-08-24T14:43:01.715Z,27.49
2023-08-24T14:45:29.370Z,27.30
2023-08-24T14:47:57.447Z,27.16
2023-08-24T14:50:25.494Z,27.04
2023-08-24T14:52:53.187Z,26.90
2023-08-24T14:55:20.866Z,26.79
2023-08-24T14:57:54.054Z,26.64
2023-08-24T15:00:22.205Z,26.50
2023-08-24T15:02:50.040Z,26.36
2023-08-24T15:05:19.610Z,26.20
2023-08-24T15:07:48.605Z,26.07
2023-08-24T15:10:17.077Z,25.95
2023-08-24T15:12:45.021Z,25.84
2023-08-24T15:15:17.832Z,25.76
2023-08-24T15:17:46.561Z,25.69
2023-08-24T15:20:14.875Z,25.64
2023-08-24T15:22:42.545Z,25.62
2023-08-24T15:25:10.641Z,25.68
2023-08-24T15:27:38.775Z,25.77
2023-08-24T15:30:08.869Z,25.86
2023-08-24T15:32:37.994Z,25.95
2023-08-24T15:35:06.653Z,26.02
2023-08-24T15:37:34.365Z,26.06
2023-08-24T15:40:04.746Z,26.10
2023-08-24T15:42:32.504Z,26.13
2023-08-24T15:45:00.419Z,26.14
2023-08-24T15:47:28.246Z,26.14
2023-08-24T15:49:57.328Z,26.15
2023-08-24T15:52:25.280Z,26.13
2023-08-24T15:54:53.417Z,26.08
2023-08-24T15:57:21.237Z,26.05
2023-08-24T15:59:49.101Z,26.00
2023-08-24T16:02:16.864Z,25.95
2023-08-24T16:04:44.575Z,25.90
2023-08-24T16:07:14.556Z,25.87
2023-08-24T16:09:42.278Z,25.84
2023-08-24T16:12:10.098Z,25.81
2023-08-24T16:14:38.100Z,25.79
2023-08-24T16:17:06.028Z,25.76
2023-08-24T16:19:33.900Z,25.75
2023-08-24T16:22:01.684Z,25.69
2023-08-24T16:24:30.835Z,25.62
2023-08-24T16:26:58.698Z,25.57
2023-08-24T16:29:28.041Z,25.50
2023-08-24T16:31:55.891Z,25.45
2023-08-24T16:34:24.197Z,25.40
2023-08-24T16:36:51.975Z,25.35
2023-08-24T16:39:19.725Z,25.31
2023-08-24T16:41:49.062Z,25.24
2023-08-24T16:44:16.840Z,25.18
2023-08-24T16:46:44.583Z,25.11
2023-08-24T16:49:12.322Z,25.03
2023-08-24T16:51:39.981Z,24.95
2023-08-24T16:54:07.920Z,24.88
2023-08-24T16:56:35.836Z,24.83
2023-08-24T16:59:04.933Z,24.77
2023-08-24T17:01:32.897Z,24.71
2023-08-24T17:04:00.736Z,24.65
2023-08-24T17:06:30.106Z,24.58
2023-08-24T17:08:58.913Z,24.49
2023-08-24T17:11:26.557Z,24.44
2023-08-24T17:13:55.004Z,24.38
2023-08-24T17:16:24.211Z,24.34
2023-08-24T17:18:52.021Z,24.28
2023-08-24T17:21:19.825Z,24.24
2023-08-24T17:23:47.577Z,24.19
2023-08-24T17:26:15.387Z,24.17
2023-08-24T17:28:43.411Z,24.14
2023-08-24T17:31:11.548Z,24.11
2023-08-24T17:33:43.451Z,24.10
2023-08-24T17:36:11.216Z,24.07
2023-08-24T17:38:38.958Z,24.04
2023-08-24T17:41:08.598Z,24.00
2023-08-24T17:43:38.474Z,23.97
2023-08-24T17:46:06.475Z,23.93
2023-08-24T17:48:34.992Z,23.88
2023-08-24T17:51:06.768Z,23.85
2023-08-24T17:53:35.655Z,23.82
2023-08-24T17:56:04.434Z,23.79
2023-08-24T17:58:32.268Z,23.74
2023-08-24T18:01:00.147Z,23.71
2023-08-24T18:03:27.958Z,23.68
2023-08-24T18:05:57.230Z,23.64
2023-08-24T18:08:31.769Z,23.58
2023-08-24T18:11:07.047Z,23.54
2023-08-24T18:13:34.941Z,23.48
2023-08-24T18:16:03.502Z,23.43
2023-08-24T18:18:33.123Z,23.39
2023-08-24T18:21:04.277Z,23.31
2023-08-24T18:23:33.327Z,23.26
2023-08-24T18:26:01.171Z,23.19
2023-08-24T18:28:28.905Z,23.13
2023-08-24T18:30:58.990Z,23.08
2023-08-24T18:33:26.977Z,23.04
2023-08-24T18:35:55.326Z,22.99
2023-08-24T18:38:23.879Z,22.94
2023-08-24T18:40:55.011Z,22.90
2023-08-24T18:43:23.111Z,22.85
2023-08-24T18:46:01.464Z,22.81
2023-08-24T18:48:29.168Z,22.77
2023-08-24T18:50:56.889Z,22.74
2023-08-24T18:53:24.988Z,22.70
2023-08-24T18:55:56.584Z,22.67
2023-08-24T18:58:24.633Z,22.61
2023-08-24T19:00:54.654Z,22.58
2023-08-24T19:03:22.448Z,22.55
2023-08-24T19:05:50.154Z,22.52
2023-08-24T19:08:18.718Z,22.48
2023-08-24T19:10:46.657Z,22.46
2023-08-24T19:13:15.781Z,22.43
2023-08-24T19:15:43.805Z,22.38
2023-08-24T19:18:12.362Z,22.36
2023-08-24T19:20:42.873Z,22.33
2023-08-24T19:23:11.357Z,22.32
2023-08-24T19:25:39.459Z,22.30
2023-08-24T19:28:07.682Z,22.29
2023-08-24T19:30:39.206Z,22.28
2023-08-24T19:33:07.346Z,22.28
2023-08-24T19:35:35.449Z,22.27
2023-08-24T19:38:03.151Z,22.26
2023-08-24T19:40:30.817Z,22.23
2023-08-24T19:42:58.504Z,22.21
2023-08-24T19:45:26.308Z,22.18
2023-08-24T19:47:56.026Z,22.16
2023-08-24T19:50:23.997Z,22.14
2023-08-24T19:52:52.101Z,22.13
2023-08-24T19:55:19.946Z,22.09
2023-08-24T19:57:47.863Z,22.06
2023-08-24T20:00:17.289Z,22.02
2023-08-24T20:02:45.227Z,21.97
2023-08-24T20:05:14.572Z,21.93
2023-08-24T20:07:48.525Z,21.90
2023-08-24T20:10:19.160Z,21.83
2023-08-24T20:12:48.417Z,21.73
2023-08-24T20:15:16.131Z,21.62
2023-08-24T20:17:45.479Z,21.52
2023-08-24T20:20:18.225Z,21.41
2023-08-24T20:22:47.317Z,21.31
2023-08-24T20:25:15.524Z,21.23
2023-08-24T20:27:43.324Z,21.13
2023-08-24T20:30:12.044Z,21.06
2023-08-24T20:32:39.876Z,20.95
2023-08-24T20:35:08.342Z,20.86
2023-08-24T20:37:37.486Z,20.77
2023-08-24T20:40:05.806Z,20.69
2023-08-24T20:42:33.498Z,20.60
2023-08-24T20:45:01.450Z,20.51
2023-08-24T20:47:29.192Z,20.43
2023-08-24T20:49:57.151Z,20.36
2023-08-24T20:52:25.144Z,20.29
2023-08-24T20:54:54.496Z,20.23
2023-08-24T20:57:23.504Z,20.14
2023-08-24T20:59:51.302Z,20.07
2023-08-24T21:02:19.110Z,20.00
2023-08-24T21:04:47.920Z,19.96
2023-08-24T21:07:15.611Z,19.91
2023-08-24T21:09:43.394Z,19.85
2023-08-24T21:12:12.530Z,19.80
2023-08-24T21:14:40.216Z,19.74
2023-08-24T21:17:07.902Z,19.67
2023-08-24T21:19:35.642Z,19.63
2023-08-24T21:22:03.354Z,19.55
2023-08-24T21:24:31.039Z,19.49
2023-08-24T21:26:59.195Z,19.45
2023-08-24T21:29:28.466Z,19.39
2023-08-24T21:31:56.267Z,19.35
2023-08-24T21:34:24.061Z,19.29
2023-08-24T21:36:51.898Z,19.26
2023-08-24T21:39:20.213Z,19.22
2023-08-24T21:41:49.001Z,19.17
2023-08-24T21:44:16.656Z,19.12
2023-08-24T21:46:45.756Z,19.08
2023-08-24T21:49:13.417Z,19.05
2023-08-24T21:51:41.173Z,19.02
2023-08-24T21:54:09.012Z,19.01
2023-08-24T21:56:36.704Z,19.02
2023-08-24T21:59:04.487Z,19.05
2023-08-24T22:01:32.884Z,19.11
2023-08-24T22:04:01.992Z,19.16
2023-08-24T22:06:29.752Z,19.21
2023-08-24T22:08:57.418Z,19.26
2023-08-24T22:11:25.264Z,19.27
2023-08-24T22:13:52.961Z,19.27
2023-08-24T22:16:20.739Z,19.27
2023-08-24T22:18:48.498Z,19.28
2023-08-24T22:21:17.546Z,19.29
2023-08-24T22:23:45.227Z,19.27
2023-08-24T22:26:12.948Z,19.22
2023-08-24T22:28:40.767Z,19.18
2023-08-24T22:31:08.722Z,19.11
2023-08-24T22:33:38.769Z,19.06
2023-08-24T22:36:07.521Z,18.99
2023-08-24T22:38:36.532Z,18.93
2023-08-24T22:41:05.148Z,18.88
2023-08-24T22:43:32.944Z,18.83
2023-08-24T22:46:00.748Z,18.79
2023-08-24T22:48:28.921Z,18.74
2023-08-24T22:50:56.630Z,18.70
2023-08-24T22:53:24.412Z,18.69
2023-08-24T22:55:53.516Z,18.66
2023-08-24T22:58:21.168Z,18.66
2023-08-24T23:00:48.826Z,18.66
2023-08-24T23:03:16.489Z,18.68
2023-08-24T23:05:44.418Z,18.70
2023-08-24T23:08:12.090Z,18.72
2023-08-24T23:10:39.789Z,18.73
2023-08-24T23:13:08.834Z,18.75
2023-08-24T23:15:36.649Z,18.77
2023-08-24T23:18:04.898Z,18.80
2023-08-24T23:20:32.911Z,18.82
2023-08-24T23:23:00.648Z,18.85
2023-08-24T23:25:28.313Z,18.86
2023-08-24T23:27:56.636Z,18.88
2023-08-24T23:30:26.537Z,18.91
2023-08-24T23:32:54.316Z,18.93
2023-08-24T23:35:22.001Z,18.96
2023-08-24T23:37:51.540Z,19.00
2023-08-24T23:40:19.938Z,19.02
2023-08-24T23:42:47.599Z,19.05
2023-08-24T23:45:15.332Z,19.10
2023-08-24T23:47:44.335Z,19.17
2023-08-24T23:50:12.028Z,19.29
2023-08-24T23:52:39.699Z,19.35
2023-08-24T23:55:08.654Z,19.45
2023-08-24T23:57:36.337Z,19.54
